Time;durP1;ratioP1;P1;durP2;ratioP2;P2;SDS_P1;SDS_P2;PMS_P1;PMS_P2;Temp;Humidity;BMP_temperature;BMP_pressure;BME280_temperature;BME280_humidity;BME280_pressure;Samples;Min_cycle;Max_cycle;Signal;HPM_P1;HPM_P2
2023/05/04 00:01:07;;;;;;;10.30;10.00;;;9.60;99.90;;;;;;5100088;28;20320;-80
2023/05/04 00:03:34;;;;;;;10.50;10.20;;;9.60;99.90;;;;;;5100082;28;20264;-81
2023/05/04 00:06:02;;;;;;;10.30;10.00;;;9.50;99.90;;;;;;5100079;28;20323;-81
2023/05/04 00:08:30;;;;;;;10.27;9.97;;;9.40;99.90;;;;;;5099699;28;20317;-80
2023/05/04 00:10:57;;;;;;;10.30;10.00;;;9.20;99.90;;;;;;5100058;28;20233;-81
2023/05/04 00:13:25;;;;;;;10.27;9.97;;;9.20;99.90;;;;;;5100345;28;20320;-80
2023/05/04 00:15:54;;;;;;;10.20;9.90;;;9.10;99.90;;;;;;5099245;28;20284;-80
2023/05/04 00:18:21;;;;;;;10.27;9.97;;;9.00;99.90;;;;;;5099112;28;20269;-80
2023/05/04 00:20:49;;;;;;;10.23;9.93;;;8.90;99.90;;;;;;5099961;28;20321;-80
2023/05/04 00:23:16;;;;;;;10.20;9.90;;;8.80;99.90;;;;;;5100059;28;20247;-82
2023/05/04 00:25:44;;;;;;;10.07;9.77;;;8.70;99.90;;;;;;5099627;28;20264;-80
2023/05/04 00:28:11;;;;;;;10.10;9.80;;;8.70;99.90;;;;;;5100229;28;20297;-80
2023/05/04 00:30:39;;;;;;;10.30;10.00;;;8.60;99.90;;;;;;5100542;28;20233;-80
2023/05/04 00:33:08;;;;;;;10.07;9.77;;;8.60;99.90;;;;;;5099915;28;20227;-80
2023/05/04 00:35:35;;;;;;;10.07;9.77;;;8.50;99.90;;;;;;5100512;28;20312;-80
2023/05/04 00:38:04;;;;;;;10.37;10.07;;;8.40;99.90;;;;;;5099836;28;20237;-80
2023/05/04 00:40:37;;;;;;;10.13;9.83;;;8.40;99.90;;;;;;5100471;28;20229;-81
2023/05/04 00:43:04;;;;;;;10.10;9.80;;;8.40;99.90;;;;;;5100174;28;20233;-81
2023/05/04 00:45:32;;;;;;;10.20;9.90;;;8.30;99.90;;;;;;5100851;28;20268;-81
2023/05/04 00:48:00;;;;;;;10.20;9.90;;;8.30;99.90;;;;;;5099829;28;20293;-81
2023/05/04 00:50:29;;;;;;;10.27;9.97;;;8.20;99.90;;;;;;5099261;28;20232;-81
2023/05/04 00:53:00;;;;;;;10.53;10.23;;;8.20;99.90;;;;;;5100062;28;20229;-80
2023/05/04 00:55:28;;;;;;;10.20;9.90;;;8.10;99.90;;;;;;5100105;28;20232;-81
2023/05/04 00:57:56;;;;;;;10.00;9.70;;;8.10;99.90;;;;;;5098673;28;20237;-80
2023/05/04 01:00:23;;;;;;;10.20;9.90;;;8.10;99.90;;;;;;5098912;28;20225;-80
2023/05/04 01:02:51;;;;;;;9.80;9.50;;;8.00;99.90;;;;;;5100115;28;20225;-80
2023/05/04 01:05:18;;;;;;;10.00;9.70;;;8.00;99.90;;;;;;5099406;28;20286;-80
2023/05/04 01:07:58;;;;;;;9.90;9.60;;;8.00;99.90;;;;;;5099508;28;20267;-80
2023/05/04 01:10:35;;;;;;;9.80;9.50;;;8.00;99.90;;;;;;5099782;28;20240;-81
2023/05/04 01:13:07;;;;;;;9.90;9.60;;;8.00;99.90;;;;;;5099466;28;20245;-80
2023/05/04 01:15:35;;;;;;;10.10;9.80;;;8.00;99.90;;;;;;5099395;28;20230;-81
2023/05/04 01:18:03;;;;;;;9.93;9.63;;;7.90;99.90;;;;;;5099715;28;20233;-80
2023/05/04 01:20:32;;;;;;;9.80;9.50;;;7.90;99.90;;;;;;5099733;28;20230;-80
2023/05/04 01:23:01;;;;;;;9.80;9.50;;;7.90;99.90;;;;;;5098947;28;20225;-80
2023/05/04 01:25:34;;;;;;;9.77;9.47;;;7.80;99.90;;;;;;5099038;28;21137;-80
2023/05/04 01:28:08;;;;;;;9.80;9.50;;;7.70;99.90;;;;;;5099185;28;20239;-80
2023/05/04 01:30:40;;;;;;;9.70;9.40;;;7.60;99.90;;;;;;5099245;28;20225;-80
2023/05/04 01:33:09;;;;;;;10.00;9.70;;;7.60;99.90;;;;;;5099849;28;20242;-80
2023/05/04 01:35:37;;;;;;;9.80;9.50;;;7.60;99.90;;;;;;5101439;28;20268;-81
2023/05/04 01:38:06;;;;;;;9.83;9.53;;;7.60;99.90;;;;;;5100938;28;20233;-80
2023/05/04 01:40:34;;;;;;;9.60;9.30;;;7.60;99.90;;;;;;5100071;28;20328;-81
2023/05/04 01:43:01;;;;;;;9.77;9.47;;;7.60;99.90;;;;;;5099905;28;20321;-80
2023/05/04 01:45:29;;;;;;;9.70;9.40;;;7.60;99.90;;;;;;5092580;28;20222;-80
2023/05/04 01:47:56;;;;;;;9.70;9.40;;;7.60;99.90;;;;;;5080115;28;20298;-80
2023/05/04 01:50:24;;;;;;;9.50;9.20;;;7.60;99.90;;;;;;5079557;28;20230;-80
2023/05/04 01:52:51;;;;;;;9.47;9.17;;;7.50;99.90;;;;;;5079395;28;20225;-79
2023/05/04 01:55:20;;;;;;;9.83;9.53;;;7.50;99.90;;;;;;5079133;28;20230;-80
2023/05/04 01:57:48;;;;;;;9.83;9.53;;;7.50;99.90;;;;;;5078515;28;20240;-80
2023/05/04 02:00:16;;;;;;;9.90;9.60;;;7.50;99.90;;;;;;5080293;28;20244;-80
2023/05/04 02:02:43;;;;;;;9.87;9.57;;;7.50;99.90;;;;;;5082319;28;20242;-80
2023/05/04 02:05:11;;;;;;;9.50;9.20;;;7.50;99.90;;;;;;5082136;28;20233;-80
2023/05/04 02:07:38;;;;;;;9.47;9.17;;;7.40;99.90;;;;;;5083243;28;20250;-80
2023/05/04 02:10:08;;;;;;;9.60;9.30;;;7.40;99.90;;;;;;5086931;28;20265;-79
2023/05/04 02:12:37;;;;;;;9.63;9.33;;;7.40;99.90;;;;;;5087347;28;20236;-79
2023/05/04 02:15:06;;;;;;;9.63;9.33;;;7.30;99.90;;;;;;5088217;28;20237;-80
2023/05/04 02:17:33;;;;;;;9.13;8.83;;;7.30;99.90;;;;;;5089324;28;20290;-80
2023/05/04 02:20:01;;;;;;;9.40;9.10;;;7.30;99.90;;;;;;5089540;28;20236;-79
2023/05/04 02:22:28;;;;;;;9.60;9.30;;;7.30;99.90;;;;;;5089835;28;20241;-80
2023/05/04 02:24:55;;;;;;;9.80;9.50;;;7.30;99.90;;;;;;5089216;28;20229;-80
2023/05/04 02:27:23;;;;;;;9.70;9.40;;;7.30;99.90;;;;;;5089401;28;20766;-79
2023/05/04 02:29:52;;;;;;;9.60;9.30;;;7.30;99.90;;;;;;5089567;28;20246;-81
2023/05/04 02:32:19;;;;;;;9.40;9.10;;;7.30;99.90;;;;;;5089867;28;20230;-80
2023/05/04 02:34:46;;;;;;;9.57;9.27;;;7.30;99.90;;;;;;5089211;28;20332;-81
2023/05/04 02:37:15;;;;;;;9.50;9.20;;;7.20;99.90;;;;;;5089106;28;20248;-80
2023/05/04 02:39:42;;;;;;;8.90;8.70;;;7.20;99.90;;;;;;5089242;28;20325;-80
2023/05/04 02:42:10;;;;;;;9.50;9.20;;;7.10;99.90;;;;;;5088556;28;20294;-80
2023/05/04 02:44:37;;;;;;;9.37;9.07;;;7.00;99.90;;;;;;5086462;28;20248;-80
2023/05/04 02:47:06;;;;;;;9.50;9.20;;;6.90;99.90;;;;;;5085791;28;20321;-80
2023/05/04 02:49:34;;;;;;;9.50;9.20;;;6.90;99.90;;;;;;5085755;28;20230;-80
2023/05/04 02:52:02;;;;;;;9.30;9.00;;;6.80;99.90;;;;;;5086223;28;20229;-80
2023/05/04 02:54:29;;;;;;;9.30;9.00;;;6.80;99.90;;;;;;5087318;28;20329;-80
2023/05/04 02:56:57;;;;;;;9.30;9.00;;;6.80;99.90;;;;;;5088103;28;20262;-80
2023/05/04 02:59:24;;;;;;;8.87;8.67;;;6.70;99.90;;;;;;5086401;28;20244;-80
2023/05/04 03:01:52;;;;;;;9.10;8.80;;;6.70;99.90;;;;;;5083812;28;20709;-80
2023/05/04 03:04:21;;;;;;;9.20;8.90;;;6.60;99.90;;;;;;5082370;28;20222;-80
2023/05/04 03:06:48;;;;;;;8.80;8.60;;;6.60;99.90;;;;;;5082647;28;20244;-81
2023/05/04 03:09:16;;;;;;;8.63;8.43;;;6.50;99.90;;;;;;5083964;28;20288;-80
2023/05/04 03:11:43;;;;;;;8.60;8.40;;;6.40;99.90;;;;;;5085226;28;20234;-80
2023/05/04 03:14:11;;;;;;;8.60;8.40;;;6.30;99.90;;;;;;5084246;28;20321;-80
2023/05/04 03:16:38;;;;;;;8.67;8.47;;;6.30;99.90;;;;;;5083341;28;20265;-80
2023/05/04 03:19:06;;;;;;;8.50;8.30;;;6.30;99.90;;;;;;5082246;28;20333;-80
2023/05/04 03:21:34;;;;;;;8.50;8.30;;;6.20;99.90;;;;;;5082442;28;20222;-80
2023/05/04 03:24:02;;;;;;;9.40;9.10;;;6.30;99.90;;;;;;5082055;28;20232;-81
2023/05/04 03:26:29;;;;;;;9.50;9.20;;;6.30;99.90;;;;;;5082969;28;20272;-80
2023/05/04 03:28:57;;;;;;;9.40;9.10;;;6.20;99.90;;;;;;5083692;28;20226;-80
2023/05/04 03:31:24;;;;;;;9.53;9.23;;;6.20;99.90;;;;;;5084366;28;20292;-80
2023/05/04 03:33:52;;;;;;;9.63;9.33;;;6.20;99.90;;;;;;5083100;28;20234;-80
2023/05/04 03:36:20;;;;;;;9.50;9.20;;;6.20;99.90;;;;;;5081971;28;20248;-80
2023/05/04 03:38:48;;;;;;;9.30;9.00;;;6.20;99.90;;;;;;5082026;28;20240;-81
2023/05/04 03:41:17;;;;;;;9.37;9.07;;;6.10;99.90;;;;;;5081585;28;20230;-80
2023/05/04 03:43:44;;;;;;;9.30;9.00;;;6.10;99.90;;;;;;5081976;28;20237;-80
2023/05/04 03:46:12;;;;;;;9.70;9.40;;;6.00;99.90;;;;;;5082422;28;20331;-80
2023/05/04 03:48:40;;;;;;;9.90;9.60;;;6.00;99.90;;;;;;5082207;28;20234;-80
2023/05/04 03:51:08;;;;;;;9.50;9.20;;;6.00;99.90;;;;;;5083118;28;20291;-80
2023/05/04 03:53:35;;;;;;;9.80;9.50;;;6.00;99.90;;;;;;5083619;28;20240;-81
2023/05/04 03:56:05;;;;;;;9.70;9.40;;;6.10;99.90;;;;;;5082906;28;20321;-80
2023/05/04 03:58:32;;;;;;;9.60;9.30;;;6.10;99.90;;;;;;5081728;28;20237;-80
2023/05/04 04:01:02;;;;;;;9.50;9.20;;;6.10;99.90;;;;;;5082142;28;20230;-80
2023/05/04 04:03:29;;;;;;;9.43;9.13;;;6.10;99.90;;;;;;5085597;28;20222;-80
2023/05/04 04:05:57;;;;;;;9.70;9.40;;;6.10;99.90;;;;;;5082915;28;20233;-80
2023/05/04 04:08:25;;;;;;;9.90;9.60;;;6.10;99.90;;;;;;5082824;28;20350;-80
2023/05/04 04:10:52;;;;;;;10.00;9.70;;;6.10;99.90;;;;;;5081558;28;20268;-79
2023/05/04 04:13:21;;;;;;;9.73;9.43;;;6.10;99.90;;;;;;5082295;28;20261;-80
2023/05/04 04:15:49;;;;;;;9.53;9.23;;;6.10;99.90;;;;;;5082245;28;20334;-80
2023/05/04 04:18:16;;;;;;;9.50;9.20;;;6.10;99.90;;;;;;5082909;28;20309;-79
2023/05/04 04:20:44;;;;;;;9.40;9.10;;;6.10;99.90;;;;;;5083801;28;20241;-80
2023/05/04 04:23:11;;;;;;;9.87;9.57;;;6.10;99.90;;;;;;5081945;28;20257;-80
2023/05/04 04:25:39;;;;;;;10.03;9.73;;;6.20;99.90;;;;;;5083628;28;20322;-80
2023/05/04 04:28:06;;;;;;;9.90;9.60;;;6.20;99.90;;;;;;5081997;28;20313;-79
2023/05/04 04:30:35;;;;;;;9.77;9.47;;;6.20;99.90;;;;;;5081988;28;20240;-79
2023/05/04 04:33:03;;;;;;;9.90;9.60;;;6.30;99.90;;;;;;5081266;28;20321;-80
2023/05/04 04:35:31;;;;;;;9.90;9.60;;;6.30;99.90;;;;;;5083334;28;20273;-80
2023/05/04 04:37:59;;;;;;;9.60;9.30;;;6.30;99.90;;;;;;5085552;28;20243;-82
2023/05/04 04:40:26;;;;;;;10.20;9.90;;;6.40;99.90;;;;;;5083960;28;20449;-79
2023/05/04 04:42:54;;;;;;;9.80;9.50;;;6.50;99.90;;;;;;5082218;28;20305;-79
2023/05/04 04:45:22;;;;;;;9.90;9.60;;;6.60;99.90;;;;;;5080051;28;20260;-80
2023/05/04 04:47:51;;;;;;;9.80;9.50;;;6.70;99.90;;;;;;5081687;28;20236;-79
2023/05/04 04:50:19;;;;;;;9.80;9.50;;;6.80;99.90;;;;;;5080010;28;20328;-79
2023/05/04 04:52:46;;;;;;;9.80;9.50;;;6.80;99.90;;;;;;5078790;28;20249;-80
2023/05/04 04:55:16;;;;;;;10.10;9.80;;;6.90;99.90;;;;;;5077803;28;20237;-80
2023/05/04 04:57:43;;;;;;;10.00;9.70;;;7.00;99.90;;;;;;5078691;28;20316;-79
2023/05/04 05:00:13;;;;;;;10.00;9.70;;;7.10;99.90;;;;;;5077285;28;20238;-79
2023/05/04 05:02:40;;;;;;;10.10;9.80;;;7.10;99.90;;;;;;5077381;28;20234;-79
2023/05/04 05:05:10;;;;;;;10.10;9.80;;;7.20;99.90;;;;;;5077957;28;20226;-79
2023/05/04 05:07:37;;;;;;;10.23;9.93;;;7.30;99.90;;;;;;5078558;28;20253;-80
2023/05/04 05:10:07;;;;;;;10.20;9.90;;;7.30;99.90;;;;;;5078021;28;20281;-79
2023/05/04 05:12:34;;;;;;;10.50;10.20;;;7.40;99.90;;;;;;5077228;28;20286;-79
2023/05/04 05:15:06;;;;;;;10.07;9.77;;;7.40;99.90;;;;;;5077515;28;20298;-79
2023/05/04 05:17:36;;;;;;;10.60;10.30;;;7.40;99.90;;;;;;5080566;28;20262;-78
2023/05/04 05:20:08;;;;;;;10.70;10.40;;;7.50;99.90;;;;;;5078110;28;20316;-79
2023/05/04 05:22:38;;;;;;;10.47;10.17;;;7.60;99.90;;;;;;5078249;28;20230;-81
2023/05/04 05:25:13;;;;;;;10.47;10.17;;;7.60;99.90;;;;;;5080581;28;20257;-81
2023/05/04 05:27:41;;;;;;;10.27;9.97;;;7.70;99.90;;;;;;5081062;28;20241;-82
2023/05/04 05:30:12;;;;;;;10.50;10.20;;;7.80;99.90;;;;;;5082033;28;20322;-82
2023/05/04 05:32:40;;;;;;;10.03;9.73;;;7.90;99.90;;;;;;5079901;28;20226;-81
2023/05/04 05:35:09;;;;;;;10.30;10.00;;;7.90;99.90;;;;;;5080614;28;20250;-83
2023/05/04 05:37:38;;;;;;;10.40;10.10;;;8.00;99.90;;;;;;5080283;28;20261;-81
2023/05/04 05:40:08;;;;;;;10.13;9.83;;;8.20;99.90;;;;;;5081160;28;20273;-82
2023/05/04 05:42:35;;;;;;;9.77;9.47;;;8.30;99.90;;;;;;5083327;28;20214;-81
2023/05/04 05:45:03;;;;;;;10.50;10.20;;;8.40;99.90;;;;;;5082553;28;20230;-84
2023/05/04 05:47:31;;;;;;;10.50;10.20;;;8.60;99.90;;;;;;5081680;28;20248;-80
2023/05/04 05:49:58;;;;;;;10.37;10.07;;;8.70;99.90;;;;;;5081674;28;20286;-81
2023/05/04 05:52:26;;;;;;;10.20;9.90;;;8.90;99.90;;;;;;5082904;28;20329;-80
2023/05/04 05:54:55;;;;;;;10.20;9.90;;;9.00;99.90;;;;;;5080555;28;20284;-81
2023/05/04 05:57:22;;;;;;;10.30;10.00;;;9.10;99.90;;;;;;5079798;28;20254;-81
2023/05/04 05:59:50;;;;;;;10.37;10.07;;;9.20;99.90;;;;;;5078073;28;20317;-81
2023/05/04 06:02:17;;;;;;;10.60;10.30;;;9.20;99.90;;;;;;5079029;28;20282;-82
2023/05/04 06:04:45;;;;;;;10.43;10.13;;;9.30;99.90;;;;;;5080389;28;20317;-85
2023/05/04 06:07:13;;;;;;;10.47;10.17;;;9.40;99.90;;;;;;5079066;28;20288;-80
2023/05/04 06:09:41;;;;;;;11.00;10.70;;;9.50;99.90;;;;;;5076579;28;20229;-79
2023/05/04 06:12:12;;;;;;;10.50;10.20;;;9.70;99.90;;;;;;5075661;28;20317;-77
2023/05/04 06:14:39;;;;;;;10.33;10.03;;;10.00;99.90;;;;;;5075667;28;20226;-78
2023/05/04 06:17:07;;;;;;;10.50;10.20;;;10.20;99.90;;;;;;5074945;28;20238;-77
2023/05/04 06:19:35;;;;;;;10.50;10.20;;;10.40;99.90;;;;;;5074061;28;20282;-77
2023/05/04 06:22:03;;;;;;;10.53;10.23;;;10.50;99.90;;;;;;5086361;28;20226;-77
2023/05/04 06:24:30;;;;;;;10.97;10.67;;;10.60;99.90;;;;;;5077722;28;20269;-77
2023/05/04 06:26:58;;;;;;;10.50;10.20;;;10.70;99.90;;;;;;5089095;28;20236;-77
2023/05/04 06:29:27;;;;;;;10.60;10.30;;;10.80;99.90;;;;;;5092274;28;20226;-76
2023/05/04 06:31:54;;;;;;;10.43;10.13;;;10.80;99.90;;;;;;5089573;28;20225;-76
2023/05/04 06:34:21;;;;;;;10.60;10.30;;;11.00;99.90;;;;;;5092323;28;20236;-77
2023/05/04 06:36:49;;;;;;;10.43;10.13;;;11.10;99.90;;;;;;5081349;28;20252;-77
2023/05/04 06:39:17;;;;;;;10.80;10.50;;;11.30;99.90;;;;;;5082592;28;20234;-76
2023/05/04 06:41:45;;;;;;;10.40;10.10;;;11.50;99.90;;;;;;5075159;28;20317;-77
2023/05/04 06:44:12;;;;;;;10.50;10.20;;;11.60;99.90;;;;;;5091452;28;20241;-77
2023/05/04 06:46:41;;;;;;;10.70;10.40;;;11.70;99.90;;;;;;5098064;28;20320;-77
2023/05/04 06:49:08;;;;;;;10.17;9.87;;;11.80;99.90;;;;;;5098928;28;20261;-77
2023/05/04 06:51:37;;;;;;;10.30;10.00;;;11.80;99.90;;;;;;5096573;28;20226;-77
2023/05/04 06:54:05;;;;;;;10.30;10.00;;;11.90;99.90;;;;;;5094373;28;20229;-77
2023/05/04 06:56:33;;;;;;;10.50;10.20;;;12.00;99.90;;;;;;5099868;28;20288;-77
2023/05/04 06:59:01;;;;;;;10.53;10.23;;;12.10;99.90;;;;;;5101476;28;20324;-77
2023/05/04 07:01:30;;;;;;;10.20;9.90;;;12.30;99.90;;;;;;5098099;28;20231;-77
2023/05/04 07:03:59;;;;;;;10.20;9.90;;;12.40;99.90;;;;;;5098362;28;20245;-77
2023/05/04 07:06:27;;;;;;;10.30;10.00;;;12.50;99.90;;;;;;5101295;28;20328;-77
2023/05/04 07:08:54;;;;;;;10.57;10.27;;;12.60;99.90;;;;;;5089068;28;20286;-77
2023/05/04 07:11:22;;;;;;;10.10;9.80;;;12.70;99.90;;;;;;5093000;28;20319;-77
2023/05/04 07:13:50;;;;;;;10.17;9.87;;;12.80;99.90;;;;;;5103668;28;20239;-77
2023/05/04 07:16:17;;;;;;;10.13;9.83;;;13.00;99.90;;;;;;5095309;28;20260;-77
2023/05/04 07:18:45;;;;;;;10.20;9.90;;;13.20;99.90;;;;;;5086539;28;20305;-77
2023/05/04 07:21:15;;;;;;;10.33;10.03;;;13.30;99.90;;;;;;5093668;28;20244;-77
2023/05/04 07:23:43;;;;;;;10.00;9.70;;;13.50;99.90;;;;;;5103289;28;20225;-78
2023/05/04 07:26:10;;;;;;;10.00;9.70;;;13.60;99.90;;;;;;5087249;28;20242;-77
2023/05/04 07:28:42;;;;;;;9.77;9.47;;;13.80;99.90;;;;;;5102146;28;20329;-77
2023/05/04 07:31:11;;;;;;;9.87;9.57;;;13.90;99.90;;;;;;5094920;28;20237;-78
2023/05/04 07:33:39;;;;;;;9.30;9.00;;;14.00;99.90;;;;;;5080564;28;20230;-77
2023/05/04 07:36:06;;;;;;;9.53;9.23;;;14.10;99.90;;;;;;5084944;28;20243;-77
2023/05/04 07:38:35;;;;;;;9.43;9.13;;;14.30;99.90;;;;;;5089400;28;20329;-78
2023/05/04 07:41:03;;;;;;;9.47;9.17;;;14.40;99.90;;;;;;5090890;28;20245;-78
2023/05/04 07:43:30;;;;;;;9.60;9.30;;;14.40;99.90;;;;;;5094673;28;20229;-78
2023/05/04 07:45:58;;;;;;;9.40;9.10;;;14.50;99.90;;;;;;5085149;28;20252;-77
2023/05/04 07:48:25;;;;;;;9.70;9.40;;;14.60;99.90;;;;;;5096707;28;20235;-78
2023/05/04 07:50:53;;;;;;;9.70;9.40;;;14.80;99.90;;;;;;5093400;28;21038;-79
2023/05/04 07:53:20;;;;;;;10.15;9.85;;;14.90;99.90;;;;;;5095107;28;20229;-79
2023/05/04 07:55:49;;;;;;;10.13;9.82;;;15.00;99.90;;;;;;5077508;28;20253;-81
2023/05/04 07:58:17;;;;;;;10.32;10.02;;;15.10;99.90;;;;;;5086636;28;20233;-77
2023/05/04 08:00:44;;;;;;;10.23;9.93;;;15.20;99.90;;;;;;5077167;28;20228;-79
2023/05/04 08:03:11;;;;;;;10.05;9.75;;;15.20;99.90;;;;;;5088121;28;20233;-82
2023/05/04 08:05:39;;;;;;;10.18;9.88;;;15.30;99.90;;;;;;5096489;28;20256;-82
2023/05/04 08:08:08;;;;;;;10.35;10.05;;;15.30;99.90;;;;;;5093222;28;20284;-82
2023/05/04 08:10:37;;;;;;;10.20;9.90;;;15.40;99.90;;;;;;5094750;28;20333;-82
2023/05/04 08:13:06;;;;;;;10.13;9.82;;;15.30;99.90;;;;;;5102841;28;20237;-81
2023/05/04 08:15:33;;;;;;;10.27;9.98;;;15.40;99.90;;;;;;5098336;28;20261;-80
2023/05/04 08:18:01;;;;;;;10.30;10.00;;;15.60;99.90;;;;;;5093518;28;20238;-81
2023/05/04 08:20:28;;;;;;;9.70;9.40;;;15.80;99.90;;;;;;5097721;28;20240;-80
2023/05/04 08:22:55;;;;;;;9.88;9.57;;;16.00;99.90;;;;;;5094474;28;20233;-82
2023/05/04 08:25:23;;;;;;;10.30;10.00;;;16.20;99.90;;;;;;5104095;28;20220;-79
2023/05/04 08:27:50;;;;;;;9.95;9.65;;;16.30;99.90;;;;;;5085280;28;20226;-81
2023/05/04 08:30:19;;;;;;;10.02;9.73;;;16.50;99.90;;;;;;5081681;28;20251;-82
2023/05/04 08:32:47;;;;;;;10.60;10.30;;;16.50;99.90;;;;;;5101290;28;20237;-84
2023/05/04 08:35:14;;;;;;;10.32;10.02;;;16.50;99.90;;;;;;5096583;28;20229;-81
2023/05/04 08:37:42;;;;;;;10.40;10.10;;;16.40;99.90;;;;;;5095984;28;20241;-80
2023/05/04 08:40:19;;;;;;;10.50;10.20;;;16.40;99.90;;;;;;5097930;28;20226;-81
2023/05/04 08:42:50;;;;;;;10.50;10.20;;;16.50;99.90;;;;;;5084908;28;20234;-82
2023/05/04 08:45:19;;;;;;;10.57;10.27;;;16.60;99.90;;;;;;5097793;28;20236;-82
2023/05/04 08:47:46;;;;;;;10.55;10.25;;;16.90;99.90;;;;;;5100631;28;20297;-82
2023/05/04 08:50:14;;;;;;;10.50;10.20;;;17.10;99.90;;;;;;5099732;28;20249;-82
2023/05/04 08:52:46;;;;;;;10.52;10.23;;;17.40;99.90;;;;;;5099708;28;20284;-81
2023/05/04 08:55:15;;;;;;;10.20;9.90;;;17.50;99.90;;;;;;5100178;28;20230;-82
2023/05/04 08:57:44;;;;;;;10.10;9.80;;;17.50;99.90;;;;;;5099844;28;20230;-81
2023/05/04 09:00:16;;;;;;;10.00;9.70;;;17.50;99.90;;;;;;5099350;28;20222;-82
2023/05/04 09:02:46;;;;;;;10.23;9.93;;;17.50;99.90;;;;;;5099328;28;20298;-81
2023/05/04 09:05:13;;;;;;;10.07;9.77;;;17.70;99.90;;;;;;5099701;28;20247;-81
2023/05/04 09:07:42;;;;;;;9.93;9.63;;;18.00;99.90;;;;;;5092232;28;20237;-78
2023/05/04 09:10:11;;;;;;;10.10;9.80;;;17.90;99.90;;;;;;5090430;28;20329;-80
2023/05/04 09:12:38;;;;;;;10.30;10.00;;;17.90;99.90;;;;;;5098226;28;20327;-80
2023/05/04 09:15:17;;;;;;;10.50;10.20;;;18.20;99.90;;;;;;5098287;28;20240;-82
2023/05/04 09:17:57;;;;;;;10.68;10.38;;;18.60;99.90;;;;;;5096902;28;20322;-80
2023/05/04 09:20:24;;;;;;;10.73;10.43;;;18.80;99.90;;;;;;5097680;28;20225;-79
2023/05/04 09:23:05;;;;;;;10.93;10.63;;;19.00;99.90;;;;;;5098845;28;20241;-79
2023/05/04 09:25:34;;;;;;;10.70;10.40;;;19.00;99.90;;;;;;5101114;28;20230;-79
2023/05/04 09:28:01;;;;;;;10.50;10.20;;;19.20;99.90;;;;;;5100561;28;20287;-80
2023/05/04 09:30:29;;;;;;;10.63;10.32;;;19.20;99.90;;;;;;5100643;28;20228;-81
2023/05/04 09:32:58;;;;;;;10.35;10.05;;;19.30;99.90;;;;;;5098429;28;20340;-79
2023/05/04 09:35:29;;;;;;;10.40;10.10;;;19.50;99.90;;;;;;5097878;28;20312;-78
2023/05/04 09:37:57;;;;;;;10.50;10.20;;;19.60;99.90;;;;;;5097977;28;20233;-79
2023/05/04 09:40:31;;;;;;;10.48;10.18;;;19.80;99.90;;;;;;5099555;28;20229;-77
2023/05/04 09:42:59;;;;;;;10.32;10.02;;;19.80;99.90;;;;;;5098123;28;20316;-80
2023/05/04 09:45:38;;;;;;;10.63;10.32;;;19.60;99.90;;;;;;5097809;28;20319;-79
2023/05/04 09:48:18;;;;;;;10.23;9.93;;;19.50;99.90;;;;;;5097684;28;20232;-78
2023/05/04 09:50:51;;;;;;;10.57;10.27;;;19.70;99.90;;;;;;5079726;28;20230;-79
2023/05/04 09:53:22;;;;;;;10.48;10.18;;;19.90;99.90;;;;;;5076171;28;20218;-77
2023/05/04 09:56:02;;;;;;;10.13;9.82;;;20.10;99.90;;;;;;5076003;28;20261;-78
2023/05/04 09:58:31;;;;;;;10.15;9.85;;;20.00;99.90;;;;;;5075634;28;20240;-78
2023/05/04 10:01:01;;;;;;;10.30;10.00;;;19.70;99.90;;;;;;5076092;28;20244;-78
2023/05/04 10:03:30;;;;;;;10.10;9.80;;;19.60;99.90;;;;;;5076429;28;20234;-78
2023/05/04 10:05:59;;;;;;;10.07;9.77;;;19.70;99.90;;;;;;5075590;28;20254;-78
2023/05/04 10:08:28;;;;;;;10.50;10.20;;;20.00;99.90;;;;;;5076278;28;20292;-78
2023/05/04 10:10:55;;;;;;;9.88;9.57;;;20.00;99.90;;;;;;5075901;28;20230;-78
2023/05/04 10:13:24;;;;;;;10.10;9.80;;;20.00;99.90;;;;;;5076776;28;20230;-78
2023/05/04 10:16:07;;;;;;;10.20;9.90;;;20.00;99.90;;;;;;5088023;28;20225;-78
2023/05/04 10:18:53;;;;;;;10.05;9.75;;;20.00;99.90;;;;;;5083180;28;20233;-78
2023/05/04 10:21:30;;;;;;;10.10;9.80;;;20.20;99.90;;;;;;5095611;28;20221;-78
2023/05/04 10:24:23;;;;;;;10.20;9.90;;;20.30;99.90;;;;;;5099279;28;20221;-78
2023/05/04 10:27:04;;;;;;;10.70;10.40;;;20.30;99.90;;;;;;5098955;28;20238;-78
2023/05/04 10:29:33;;;;;;;10.25;9.95;;;20.00;99.90;;;;;;5099235;28;20217;-77
2023/05/04 10:32:00;;;;;;;10.13;9.82;;;20.10;99.90;;;;;;5099767;28;20271;-79
2023/05/04 10:34:31;;;;;;;10.10;9.80;;;20.30;99.90;;;;;;5100703;28;20322;-79
2023/05/04 10:36:59;;;;;;;10.35;10.05;;;20.70;99.90;;;;;;5100076;28;20241;-80
2023/05/04 10:39:30;;;;;;;10.30;10.00;;;20.90;99.90;;;;;;5094938;28;20238;-80
2023/05/04 10:42:02;;;;;;;10.20;9.90;;;20.70;99.90;;;;;;5086932;28;20231;-79
2023/05/04 10:44:31;;;;;;;10.23;9.93;;;20.80;99.90;;;;;;5100841;28;20295;-80
2023/05/04 10:47:01;;;;;;;10.20;9.90;;;20.90;99.90;;;;;;5100453;28;20235;-79
2023/05/04 10:49:31;;;;;;;10.48;10.18;;;20.90;99.90;;;;;;5100034;28;20221;-80
2023/05/04 10:52:10;;;;;;;10.50;10.20;;;21.00;99.90;;;;;;5103288;28;20226;-79
2023/05/04 10:54:39;;;;;;;10.52;10.23;;;21.00;99.90;;;;;;5104556;28;20770;-80
2023/05/04 10:57:09;;;;;;;10.40;10.10;;;21.00;99.90;;;;;;5101719;28;20315;-79
2023/05/04 10:59:37;;;;;;;10.73;10.43;;;21.30;99.90;;;;;;5092558;28;20229;-79
2023/05/04 11:02:06;;;;;;;10.60;10.30;;;21.10;99.90;;;;;;5085907;28;20278;-79
2023/05/04 11:04:36;;;;;;;10.50;10.20;;;21.30;99.90;;;;;;5081790;28;20272;-80
2023/05/04 11:07:07;;;;;;;10.38;10.07;;;21.80;99.90;;;;;;5081648;28;20234;-79
2023/05/04 11:09:39;;;;;;;10.35;10.05;;;22.20;99.90;;;;;;5080791;28;20337;-79
2023/05/04 11:12:09;;;;;;;10.35;10.05;;;22.20;99.90;;;;;;5081064;28;20220;-80
2023/05/04 11:14:41;;;;;;;10.50;10.20;;;22.60;99.90;;;;;;5080875;28;20230;-79
2023/05/04 11:17:09;;;;;;;10.32;10.02;;;23.00;99.90;;;;;;5081045;28;20276;-80
2023/05/04 11:19:49;;;;;;;10.48;10.18;;;23.40;99.90;;;;;;5081210;28;20262;-80
2023/05/04 11:22:17;;;;;;;10.30;10.00;;;23.50;99.90;;;;;;5086869;28;20233;-79
2023/05/04 11:24:47;;;;;;;10.20;9.90;;;23.60;99.90;;;;;;5081422;28;20308;-80
2023/05/04 11:27:23;;;;;;;10.40;10.10;;;23.40;99.90;;;;;;5081959;28;20237;-80
2023/05/04 11:29:57;;;;;;;10.38;10.07;;;23.30;99.90;;;;;;5089228;28;20237;-80
2023/05/04 11:32:34;;;;;;;10.50;10.20;;;23.20;99.90;;;;;;5090786;28;20229;-79
2023/05/04 11:35:07;;;;;;;10.05;9.75;;;22.90;99.90;;;;;;5102060;28;20306;-81
2023/05/04 11:37:40;;;;;;;10.05;9.75;;;22.60;99.90;;;;;;5102330;28;20244;-80
2023/05/04 11:40:19;;;;;;;10.10;9.80;;;22.50;99.90;;;;;;5102545;28;20257;-80
2023/05/04 11:42:49;;;;;;;10.07;9.77;;;22.50;99.90;;;;;;5100732;28;20235;-79
2023/05/04 11:45:19;;;;;;;10.00;9.70;;;22.60;99.90;;;;;;5099936;28;20233;-80
2023/05/04 11:47:50;;;;;;;10.10;9.80;;;22.60;99.90;;;;;;5097463;28;20237;-80
2023/05/04 11:50:21;;;;;;;9.85;9.55;;;22.90;99.90;;;;;;5094859;28;20229;-80
2023/05/04 11:52:49;;;;;;;10.30;10.00;;;22.90;99.90;;;;;;5094634;28;20233;-80
2023/05/04 11:55:29;;;;;;;10.10;9.80;;;22.80;99.90;;;;;;5097324;28;20316;-81
2023/05/04 11:57:58;;;;;;;9.77;9.48;;;22.80;99.90;;;;;;5094066;28;20244;-81
2023/05/04 12:00:39;;;;;;;9.80;9.50;;;22.70;99.90;;;;;;5093881;28;20234;-82
2023/05/04 12:03:11;;;;;;;9.93;9.63;;;22.60;99.90;;;;;;5097996;28;20231;-86
2023/05/04 12:05:49;;;;;;;10.00;9.70;;;22.50;99.90;;;;;;5091000;28;20253;-86
2023/05/04 12:08:29;;;;;;;9.88;9.57;;;22.50;99.90;;;;;;5090078;28;21070;-86
2023/05/04 12:11:14;;;;;;;9.82;9.52;;;22.80;99.90;;;;;;5088865;28;20237;-85
2023/05/04 12:13:43;;;;;;;9.98;9.68;;;22.80;99.90;;;;;;5090557;28;20218;-85
2023/05/04 12:16:12;;;;;;;10.10;9.80;;;23.10;99.90;;;;;;5090746;28;20329;-83
2023/05/04 12:18:41;;;;;;;10.60;10.30;;;23.60;99.90;;;;;;5091687;28;20230;-83
2023/05/04 12:21:12;;;;;;;10.50;10.20;;;23.80;99.90;;;;;;5089198;28;20286;-84
2023/05/04 12:23:41;;;;;;;10.68;10.38;;;23.80;99.90;;;;;;5091307;28;20266;-84
2023/05/04 12:26:09;;;;;;;10.75;10.45;;;23.90;99.90;;;;;;5100291;28;20250;-84
2023/05/04 12:28:38;;;;;;;10.50;10.20;;;23.90;99.90;;;;;;5095328;28;20280;-85
2023/05/04 12:31:06;;;;;;;10.80;10.50;;;23.60;99.90;;;;;;5084644;28;20253;-84
2023/05/04 12:33:35;;;;;;;10.80;10.50;;;23.30;99.90;;;;;;5084045;28;20222;-82
2023/05/04 12:36:04;;;;;;;10.82;10.52;;;23.60;99.90;;;;;;5084354;28;20261;-83
2023/05/04 12:38:34;;;;;;;10.43;10.13;;;23.80;99.90;;;;;;5084131;28;20284;-84
2023/05/04 12:41:03;;;;;;;10.50;10.20;;;23.70;99.90;;;;;;5083853;28;20234;-87
2023/05/04 12:43:32;;;;;;;10.68;10.38;;;23.70;99.90;;;;;;5082894;28;20269;-86
2023/05/04 12:46:00;;;;;;;10.70;10.40;;;23.70;99.90;;;;;;5083348;28;20234;-87
2023/05/04 12:48:30;;;;;;;10.82;10.52;;;23.80;99.90;;;;;;5082396;28;20264;-85
2023/05/04 12:50:59;;;;;;;10.63;10.32;;;23.50;99.90;;;;;;5084910;28;20221;-85